sensor_id;sensor_type;location;lat;lon;timestamp;P1;durP1;ratioP1;P2;durP2;ratioP2
54977;SDS011;40873;47.522;19.106;2022-08-27T00:01:20;10.95;;;5.55;;
54977;SDS011;40873;47.522;19.106;2022-08-27T00:03:47;10.50;;;5.65;;
54977;SDS011;40873;47.522;19.106;2022-08-27T00:06:15;15.52;;;7.22;;
54977;SDS011;40873;47.522;19.106;2022-08-27T00:08:45;10.85;;;5.93;;
54977;SDS011;40873;47.522;19.106;2022-08-27T00:11:13;15.43;;;5.78;;
54977;SDS011;40873;47.522;19.106;2022-08-27T00:13:40;11.55;;;5.43;;
54977;SDS011;40873;47.522;19.106;2022-08-27T00:16:08;14.63;;;6.13;;
54977;SDS011;40873;47.522;19.106;2022-08-27T00:18:37;15.30;;;6.22;;
54977;SDS011;40873;47.522;19.106;2022-08-27T00:21:04;13.73;;;6.80;;
54977;SDS011;40873;47.522;19.106;2022-08-27T00:23:32;14.52;;;6.38;;
54977;SDS011;40873;47.522;19.106;2022-08-27T00:26:00;15.43;;;5.68;;
54977;SDS011;40873;47.522;19.106;2022-08-27T00:28:28;12.05;;;6.75;;
54977;SDS011;40873;47.522;19.106;2022-08-27T00:30:56;15.02;;;6.72;;
54977;SDS011;40873;47.522;19.106;2022-08-27T00:33:23;11.15;;;6.22;;
54977;SDS011;40873;47.522;19.106;2022-08-27T00:35:50;8.55;;;5.78;;
54977;SDS011;40873;47.522;19.106;2022-08-27T00:38:18;13.05;;;5.55;;
54977;SDS011;40873;47.522;19.106;2022-08-27T00:40:47;10.95;;;5.55;;
54977;SDS011;40873;47.522;19.106;2022-08-27T00:43:25;9.07;;;5.68;;
54977;SDS011;40873;47.522;19.106;2022-08-27T00:45:55;11.40;;;5.80;;
54977;SDS011;40873;47.522;19.106;2022-08-27T00:48:29;10.45;;;6.07;;
54977;SDS011;40873;47.522;19.106;2022-08-27T00:51:00;9.73;;;5.65;;
54977;SDS011;40873;47.522;19.106;2022-08-27T00:53:29;9.98;;;5.88;;
54977;SDS011;40873;47.522;19.106;2022-08-27T00:56:03;10.57;;;5.10;;
54977;SDS011;40873;47.522;19.106;2022-08-27T00:58:39;10.75;;;5.47;;
54977;SDS011;40873;47.522;19.106;2022-08-27T01:01:17;15.38;;;6.38;;
54977;SDS011;40873;47.522;19.106;2022-08-27T01:03:48;13.25;;;5.55;;
54977;SDS011;40873;47.522;19.106;2022-08-27T01:06:18;9.80;;;5.18;;
54977;SDS011;40873;47.522;19.106;2022-08-27T01:08:50;10.45;;;6.03;;
54977;SDS011;40873;47.522;19.106;2022-08-27T01:11:21;10.02;;;5.57;;
54977;SDS011;40873;47.522;19.106;2022-08-27T01:13:50;19.55;;;5.68;;
54977;SDS011;40873;47.522;19.106;2022-08-27T01:16:28;11.57;;;6.40;;
54977;SDS011;40873;47.522;19.106;2022-08-27T01:19:06;12.55;;;6.15;;
54977;SDS011;40873;47.522;19.106;2022-08-27T01:21:44;14.85;;;5.45;;
54977;SDS011;40873;47.522;19.106;2022-08-27T01:27:00;11.07;;;5.20;;
54977;SDS011;40873;47.522;19.106;2022-08-27T01:29:31;12.27;;;5.57;;
54977;SDS011;40873;47.522;19.106;2022-08-27T01:31:59;14.18;;;5.78;;
54977;SDS011;40873;47.522;19.106;2022-08-27T01:34:33;12.13;;;6.30;;
54977;SDS011;40873;47.522;19.106;2022-08-27T01:37:00;14.65;;;6.20;;
54977;SDS011;40873;47.522;19.106;2022-08-27T01:39:28;10.07;;;5.22;;
54977;SDS011;40873;47.522;19.106;2022-08-27T01:42:00;10.40;;;5.53;;
54977;SDS011;40873;47.522;19.106;2022-08-27T01:44:28;13.82;;;6.10;;
54977;SDS011;40873;47.522;19.106;2022-08-27T01:46:55;10.80;;;5.43;;
54977;SDS011;40873;47.522;19.106;2022-08-27T01:49:22;12.45;;;6.35;;
54977;SDS011;40873;47.522;19.106;2022-08-27T01:51:48;12.35;;;5.40;;
54977;SDS011;40873;47.522;19.106;2022-08-27T01:54:15;12.05;;;5.10;;
54977;SDS011;40873;47.522;19.106;2022-08-27T01:56:42;11.00;;;5.57;;
54977;SDS011;40873;47.522;19.106;2022-08-27T01:59:09;13.95;;;5.85;;
54977;SDS011;40873;47.522;19.106;2022-08-27T02:01:37;12.25;;;5.88;;
54977;SDS011;40873;47.522;19.106;2022-08-27T02:04:04;15.40;;;6.30;;
54977;SDS011;40873;47.522;19.106;2022-08-27T02:06:31;17.98;;;6.80;;
54977;SDS011;40873;47.522;19.106;2022-08-27T02:08:58;14.98;;;6.25;;
54977;SDS011;40873;47.522;19.106;2022-08-27T02:11:26;14.60;;;6.15;;
54977;SDS011;40873;47.522;19.106;2022-08-27T02:13:53;11.75;;;5.95;;
54977;SDS011;40873;47.522;19.106;2022-08-27T02:16:19;13.75;;;6.07;;
54977;SDS011;40873;47.522;19.106;2022-08-27T02:18:47;15.13;;;5.43;;
54977;SDS011;40873;47.522;19.106;2022-08-27T02:21:14;13.65;;;5.45;;
54977;SDS011;40873;47.522;19.106;2022-08-27T02:23:43;15.20;;;5.22;;
54977;SDS011;40873;47.522;19.106;2022-08-27T02:26:10;14.38;;;6.03;;
54977;SDS011;40873;47.522;19.106;2022-08-27T02:28:38;18.73;;;7.07;;
54977;SDS011;40873;47.522;19.106;2022-08-27T02:31:05;16.73;;;5.72;;
54977;SDS011;40873;47.522;19.106;2022-08-27T02:33:33;18.08;;;5.85;;
54977;SDS011;40873;47.522;19.106;2022-08-27T02:36:00;17.17;;;6.45;;
54977;SDS011;40873;47.522;19.106;2022-08-27T02:38:28;12.55;;;5.60;;
54977;SDS011;40873;47.522;19.106;2022-08-27T02:40:55;16.38;;;5.78;;
54977;SDS011;40873;47.522;19.106;2022-08-27T02:43:23;18.45;;;7.95;;
54977;SDS011;40873;47.522;19.106;2022-08-27T02:45:50;12.02;;;5.97;;
54977;SDS011;40873;47.522;19.106;2022-08-27T02:48:18;20.85;;;6.60;;
54977;SDS011;40873;47.522;19.106;2022-08-27T02:50:45;12.38;;;5.65;;
54977;SDS011;40873;47.522;19.106;2022-08-27T02:53:12;10.60;;;5.60;;
54977;SDS011;40873;47.522;19.106;2022-08-27T02:55:40;12.40;;;5.55;;
54977;SDS011;40873;47.522;19.106;2022-08-27T02:58:09;10.07;;;5.40;;
54977;SDS011;40873;47.522;19.106;2022-08-27T03:00:38;12.75;;;6.07;;
54977;SDS011;40873;47.522;19.106;2022-08-27T03:03:06;15.35;;;5.35;;
54977;SDS011;40873;47.522;19.106;2022-08-27T03:05:32;10.35;;;4.93;;
54977;SDS011;40873;47.522;19.106;2022-08-27T03:07:59;10.82;;;5.25;;
54977;SDS011;40873;47.522;19.106;2022-08-27T03:10:27;10.80;;;6.97;;
54977;SDS011;40873;47.522;19.106;2022-08-27T03:12:55;9.07;;;5.43;;
54977;SDS011;40873;47.522;19.106;2022-08-27T03:15:23;11.35;;;6.72;;
54977;SDS011;40873;47.522;19.106;2022-08-27T03:17:50;9.70;;;6.03;;
54977;SDS011;40873;47.522;19.106;2022-08-27T03:20:37;8.52;;;5.78;;
54977;SDS011;40873;47.522;19.106;2022-08-27T03:23:07;13.20;;;6.13;;
54977;SDS011;40873;47.522;19.106;2022-08-27T03:25:35;8.73;;;5.90;;
54977;SDS011;40873;47.522;19.106;2022-08-27T03:28:03;11.02;;;5.57;;
54977;SDS011;40873;47.522;19.106;2022-08-27T03:30:37;11.75;;;5.72;;
54977;SDS011;40873;47.522;19.106;2022-08-27T03:33:03;8.82;;;5.95;;
54977;SDS011;40873;47.522;19.106;2022-08-27T03:35:31;11.90;;;5.65;;
54977;SDS011;40873;47.522;19.106;2022-08-27T03:37:59;14.07;;;5.65;;
54977;SDS011;40873;47.522;19.106;2022-08-27T03:40:28;10.50;;;5.40;;
54977;SDS011;40873;47.522;19.106;2022-08-27T03:42:55;7.80;;;5.50;;
54977;SDS011;40873;47.522;19.106;2022-08-27T03:45:22;12.30;;;6.22;;
54977;SDS011;40873;47.522;19.106;2022-08-27T03:47:49;9.73;;;6.32;;
54977;SDS011;40873;47.522;19.106;2022-08-27T03:50:16;14.05;;;6.03;;
54977;SDS011;40873;47.522;19.106;2022-08-27T03:52:43;9.38;;;6.43;;
54977;SDS011;40873;47.522;19.106;2022-08-27T03:55:12;12.68;;;5.72;;
54977;SDS011;40873;47.522;19.106;2022-08-27T03:57:39;17.20;;;6.80;;
54977;SDS011;40873;47.522;19.106;2022-08-27T04:00:07;18.00;;;7.68;;
54977;SDS011;40873;47.522;19.106;2022-08-27T04:02:40;8.53;;;6.47;;
54977;SDS011;40873;47.522;19.106;2022-08-27T04:05:09;10.95;;;6.10;;
54977;SDS011;40873;47.522;19.106;2022-08-27T04:07:38;14.43;;;7.88;;
54977;SDS011;40873;47.522;19.106;2022-08-27T04:10:06;10.48;;;6.70;;
54977;SDS011;40873;47.522;19.106;2022-08-27T04:12:35;11.27;;;6.40;;
54977;SDS011;40873;47.522;19.106;2022-08-27T04:15:03;16.75;;;7.22;;
54977;SDS011;40873;47.522;19.106;2022-08-27T04:17:31;11.75;;;6.78;;
54977;SDS011;40873;47.522;19.106;2022-08-27T04:19:58;10.40;;;6.07;;
54977;SDS011;40873;47.522;19.106;2022-08-27T04:22:45;13.65;;;6.47;;
54977;SDS011;40873;47.522;19.106;2022-08-27T04:25:13;9.48;;;5.88;;
54977;SDS011;40873;47.522;19.106;2022-08-27T04:27:40;15.77;;;6.20;;
54977;SDS011;40873;47.522;19.106;2022-08-27T04:30:08;17.80;;;6.20;;
54977;SDS011;40873;47.522;19.106;2022-08-27T04:32:36;15.95;;;5.82;;
54977;SDS011;40873;47.522;19.106;2022-08-27T04:35:03;15.23;;;6.22;;
54977;SDS011;40873;47.522;19.106;2022-08-27T04:37:31;9.95;;;5.80;;
54977;SDS011;40873;47.522;19.106;2022-08-27T04:39:59;9.20;;;5.32;;
54977;SDS011;40873;47.522;19.106;2022-08-27T04:42:26;10.18;;;5.82;;
54977;SDS011;40873;47.522;19.106;2022-08-27T04:44:52;10.20;;;5.38;;
54977;SDS011;40873;47.522;19.106;2022-08-27T04:47:19;14.95;;;6.93;;
54977;SDS011;40873;47.522;19.106;2022-08-27T04:49:46;11.27;;;5.57;;
54977;SDS011;40873;47.522;19.106;2022-08-27T04:52:13;11.63;;;5.28;;
54977;SDS011;40873;47.522;19.106;2022-08-27T04:54:42;12.07;;;5.90;;
54977;SDS011;40873;47.522;19.106;2022-08-27T04:57:09;9.13;;;5.47;;
54977;SDS011;40873;47.522;19.106;2022-08-27T04:59:36;10.90;;;5.65;;
54977;SDS011;40873;47.522;19.106;2022-08-27T05:02:06;10.73;;;5.68;;
54977;SDS011;40873;47.522;19.106;2022-08-27T05:04:36;9.55;;;5.85;;
54977;SDS011;40873;47.522;19.106;2022-08-27T05:07:06;10.23;;;4.90;;
54977;SDS011;40873;47.522;19.106;2022-08-27T05:09:34;10.98;;;5.55;;
54977;SDS011;40873;47.522;19.106;2022-08-27T05:12:01;15.93;;;5.35;;
54977;SDS011;40873;47.522;19.106;2022-08-27T05:14:28;11.95;;;5.32;;
54977;SDS011;40873;47.522;19.106;2022-08-27T05:16:57;9.35;;;5.15;;
54977;SDS011;40873;47.522;19.106;2022-08-27T05:19:25;11.88;;;4.45;;
54977;SDS011;40873;47.522;19.106;2022-08-27T05:21:52;12.68;;;5.28;;
54977;SDS011;40873;47.522;19.106;2022-08-27T05:24:19;11.07;;;4.90;;
54977;SDS011;40873;47.522;19.106;2022-08-27T05:26:47;12.48;;;5.03;;
54977;SDS011;40873;47.522;19.106;2022-08-27T05:29:15;12.60;;;5.20;;
54977;SDS011;40873;47.522;19.106;2022-08-27T05:31:42;10.25;;;4.28;;
54977;SDS011;40873;47.522;19.106;2022-08-27T05:34:10;11.75;;;4.80;;
54977;SDS011;40873;47.522;19.106;2022-08-27T05:36:44;15.07;;;7.50;;
54977;SDS011;40873;47.522;19.106;2022-08-27T05:39:14;13.45;;;6.60;;
54977;SDS011;40873;47.522;19.106;2022-08-27T05:41:42;12.27;;;5.18;;
54977;SDS011;40873;47.522;19.106;2022-08-27T05:44:09;10.73;;;5.85;;
54977;SDS011;40873;47.522;19.106;2022-08-27T05:46:56;14.10;;;5.15;;
54977;SDS011;40873;47.522;19.106;2022-08-27T05:49:23;13.63;;;4.57;;
54977;SDS011;40873;47.522;19.106;2022-08-27T05:51:50;9.75;;;4.32;;
54977;SDS011;40873;47.522;19.106;2022-08-27T05:54:17;10.27;;;4.93;;
54977;SDS011;40873;47.522;19.106;2022-08-27T05:56:47;11.73;;;4.38;;
54977;SDS011;40873;47.522;19.106;2022-08-27T05:59:15;6.38;;;3.83;;
54977;SDS011;40873;47.522;19.106;2022-08-27T06:02:02;7.22;;;3.70;;
54977;SDS011;40873;47.522;19.106;2022-08-27T06:04:31;10.75;;;4.00;;
54977;SDS011;40873;47.522;19.106;2022-08-27T06:06:58;11.82;;;4.72;;
54977;SDS011;40873;47.522;19.106;2022-08-27T06:09:25;9.40;;;4.55;;
54977;SDS011;40873;47.522;19.106;2022-08-27T06:11:55;10.27;;;4.38;;
54977;SDS011;40873;47.522;19.106;2022-08-27T06:14:24;9.65;;;4.20;;
54977;SDS011;40873;47.522;19.106;2022-08-27T06:16:51;15.45;;;5.40;;
54977;SDS011;40873;47.522;19.106;2022-08-27T06:19:18;9.70;;;4.63;;
54977;SDS011;40873;47.522;19.106;2022-08-27T06:21:45;8.48;;;3.92;;
54977;SDS011;40873;47.522;19.106;2022-08-27T06:24:33;11.52;;;4.20;;
54977;SDS011;40873;47.522;19.106;2022-08-27T06:27:01;12.10;;;3.50;;
54977;SDS011;40873;47.522;19.106;2022-08-27T06:29:28;11.77;;;3.88;;
54977;SDS011;40873;47.522;19.106;2022-08-27T06:31:55;9.85;;;4.05;;
54977;SDS011;40873;47.522;19.106;2022-08-27T06:34:22;7.97;;;3.42;;
54977;SDS011;40873;47.522;19.106;2022-08-27T06:36:49;8.25;;;3.90;;
54977;SDS011;40873;47.522;19.106;2022-08-27T06:39:16;11.32;;;4.75;;
54977;SDS011;40873;47.522;19.106;2022-08-27T06:41:43;8.40;;;4.50;;
54977;SDS011;40873;47.522;19.106;2022-08-27T06:44:11;6.85;;;3.42;;
54977;SDS011;40873;47.522;19.106;2022-08-27T06:46:39;8.30;;;3.65;;
54977;SDS011;40873;47.522;19.106;2022-08-27T06:49:07;7.18;;;3.70;;
54977;SDS011;40873;47.522;19.106;2022-08-27T06:51:34;10.25;;;3.92;;
54977;SDS011;40873;47.522;19.106;2022-08-27T06:54:04;9.13;;;4.03;;
54977;SDS011;40873;47.522;19.106;2022-08-27T06:56:34;8.93;;;4.75;;
54977;SDS011;40873;47.522;19.106;2022-08-27T06:59:02;7.03;;;4.80;;
54977;SDS011;40873;47.522;19.106;2022-08-27T07:01:39;13.45;;;4.53;;
54977;SDS011;40873;47.522;19.106;2022-08-27T07:04:09;10.43;;;4.18;;
54977;SDS011;40873;47.522;19.106;2022-08-27T07:06:38;9.43;;;3.63;;
54977;SDS011;40873;47.522;19.106;2022-08-27T07:09:06;10.05;;;4.68;;
54977;SDS011;40873;47.522;19.106;2022-08-27T07:11:34;8.65;;;3.55;;
54977;SDS011;40873;47.522;19.106;2022-08-27T07:14:03;9.65;;;3.85;;
54977;SDS011;40873;47.522;19.106;2022-08-27T07:16:33;11.82;;;4.65;;
54977;SDS011;40873;47.522;19.106;2022-08-27T07:19:01;8.27;;;3.72;;
54977;SDS011;40873;47.522;19.106;2022-08-27T07:21:30;8.45;;;3.35;;
54977;SDS011;40873;47.522;19.106;2022-08-27T07:23:59;6.43;;;3.17;;
54977;SDS011;40873;47.522;19.106;2022-08-27T07:26:31;9.55;;;4.68;;
54977;SDS011;40873;47.522;19.106;2022-08-27T07:29:00;9.50;;;3.45;;
54977;SDS011;40873;47.522;19.106;2022-08-27T07:31:28;7.57;;;3.08;;
54977;SDS011;40873;47.522;19.106;2022-08-27T07:33:54;8.77;;;3.85;;
54977;SDS011;40873;47.522;19.106;2022-08-27T07:36:22;9.70;;;3.70;;
54977;SDS011;40873;47.522;19.106;2022-08-27T07:38:49;10.50;;;4.13;;
54977;SDS011;40873;47.522;19.106;2022-08-27T07:41:27;31.17;;;4.10;;
54977;SDS011;40873;47.522;19.106;2022-08-27T07:43:57;11.13;;;3.70;;
54977;SDS011;40873;47.522;19.106;2022-08-27T07:46:54;10.35;;;3.13;;
54977;SDS011;40873;47.522;19.106;2022-08-27T07:49:22;9.07;;;4.32;;
54977;SDS011;40873;47.522;19.106;2022-08-27T07:51:53;9.45;;;3.53;;
54977;SDS011;40873;47.522;19.106;2022-08-27T07:54:20;12.93;;;3.33;;
54977;SDS011;40873;47.522;19.106;2022-08-27T07:56:48;7.90;;;3.22;;
54977;SDS011;40873;47.522;19.106;2022-08-27T07:59:22;8.80;;;3.92;;
54977;SDS011;40873;47.522;19.106;2022-08-27T08:01:50;13.00;;;3.58;;
54977;SDS011;40873;47.522;19.106;2022-08-27T08:04:17;8.95;;;3.45;;
54977;SDS011;40873;47.522;19.106;2022-08-27T08:06:46;9.85;;;3.50;;
54977;SDS011;40873;47.522;19.106;2022-08-27T08:09:13;6.28;;;3.55;;
54977;SDS011;40873;47.522;19.106;2022-08-27T08:11:42;5.93;;;3.75;;
54977;SDS011;40873;47.522;19.106;2022-08-27T08:14:09;8.88;;;3.10;;
54977;SDS011;40873;47.522;19.106;2022-08-27T08:16:36;7.45;;;3.47;;
54977;SDS011;40873;47.522;19.106;2022-08-27T08:19:03;6.45;;;3.70;;
54977;SDS011;40873;47.522;19.106;2022-08-27T08:21:30;8.88;;;3.70;;
54977;SDS011;40873;47.522;19.106;2022-08-27T08:23:57;9.52;;;3.75;;
54977;SDS011;40873;47.522;19.106;2022-08-27T08:26:24;7.22;;;3.50;;
54977;SDS011;40873;47.522;19.106;2022-08-27T08:28:51;6.72;;;3.42;;
54977;SDS011;40873;47.522;19.106;2022-08-27T08:31:18;9.70;;;3.75;;
54977;SDS011;40873;47.522;19.106;2022-08-27T08:33:45;12.48;;;4.95;;
54977;SDS011;40873;47.522;19.106;2022-08-27T08:36:16;9.57;;;4.30;;
54977;SDS011;40873;47.522;19.106;2022-08-27T08:38:43;8.13;;;3.95;;
54977;SDS011;40873;47.522;19.106;2022-08-27T08:43:56;9.52;;;3.70;;
54977;SDS011;40873;47.522;19.106;2022-08-27T08:46:44;5.05;;;3.30;;
54977;SDS011;40873;47.522;19.106;2022-08-27T08:52:25;8.85;;;3.85;;
54977;SDS011;40873;47.522;19.106;2022-08-27T08:57:47;6.35;;;3.00;;
54977;SDS011;40873;47.522;19.106;2022-08-27T09:00:19;8.27;;;3.05;;
54977;SDS011;40873;47.522;19.106;2022-08-27T09:02:48;8.02;;;3.90;;
54977;SDS011;40873;47.522;19.106;2022-08-27T09:05:20;9.82;;;3.85;;
54977;SDS011;40873;47.522;19.106;2022-08-27T09:14:31;9.52;;;3.80;;
54977;SDS011;40873;47.522;19.106;2022-08-27T09:16:44;8.93;;;3.65;;
54977;SDS011;40873;47.522;19.106;2022-08-27T09:19:11;10.82;;;3.33;;
54977;SDS011;40873;47.522;19.106;2022-08-27T09:27:02;8.98;;;3.72;;
54977;SDS011;40873;47.522;19.106;2022-08-27T09:29:30;6.30;;;2.92;;
54977;SDS011;40873;47.522;19.106;2022-08-27T09:31:58;7.28;;;3.38;;
54977;SDS011;40873;47.522;19.106;2022-08-27T09:34:37;12.30;;;3.75;;
54977;SDS011;40873;47.522;19.106;2022-08-27T09:37:21;6.80;;;3.30;;
54977;SDS011;40873;47.522;19.106;2022-08-27T09:40:02;5.78;;;3.10;;
54977;SDS011;40873;47.522;19.106;2022-08-27T09:42:53;11.35;;;3.83;;
54977;SDS011;40873;47.522;19.106;2022-08-27T09:45:26;10.55;;;3.13;;
54977;SDS011;40873;47.522;19.106;2022-08-27T09:50:41;7.05;;;3.13;;
54977;SDS011;40873;47.522;19.106;2022-08-27T09:53:20;5.68;;;2.80;;
54977;SDS011;40873;47.522;19.106;2022-08-27T09:55:59;7.78;;;3.38;;
54977;SDS011;40873;47.522;19.106;2022-08-27T09:58:29;12.13;;;3.83;;
54977;SDS011;40873;47.522;19.106;2022-08-27T10:01:04;8.23;;;3.05;;
54977;SDS011;40873;47.522;19.106;2022-08-27T10:03:45;6.47;;;2.95;;
54977;SDS011;40873;47.522;19.106;2022-08-27T10:06:12;14.07;;;3.03;;
54977;SDS011;40873;47.522;19.106;2022-08-27T10:08:45;8.32;;;2.97;;
54977;SDS011;40873;47.522;19.106;2022-08-27T10:11:17;7.90;;;2.88;;
54977;SDS011;40873;47.522;19.106;2022-08-27T10:19:32;8.00;;;3.35;;
54977;SDS011;40873;47.522;19.106;2022-08-27T10:28:09;7.93;;;3.00;;
54977;SDS011;40873;47.522;19.106;2022-08-27T10:44:57;8.95;;;2.55;;
54977;SDS011;40873;47.522;19.106;2022-08-27T10:55:39;11.43;;;2.65;;
54977;SDS011;40873;47.522;19.106;2022-08-27T10:58:23;8.98;;;2.10;;
54977;SDS011;40873;47.522;19.106;2022-08-27T11:04:06;8.15;;;2.78;;
54977;SDS011;40873;47.522;19.106;2022-08-27T11:06:42;8.50;;;2.25;;
54977;SDS011;40873;47.522;19.106;2022-08-27T11:09:19;6.40;;;2.70;;
54977;SDS011;40873;47.522;19.106;2022-08-27T11:11:55;8.93;;;2.50;;
54977;SDS011;40873;47.522;19.106;2022-08-27T11:20:18;3.47;;;2.40;;
54977;SDS011;40873;47.522;19.106;2022-08-27T11:22:50;10.98;;;2.30;;
54977;SDS011;40873;47.522;19.106;2022-08-27T11:28:40;8.95;;;2.20;;
54977;SDS011;40873;47.522;19.106;2022-08-27T11:31:18;5.70;;;1.95;;
54977;SDS011;40873;47.522;19.106;2022-08-27T11:39:40;6.95;;;2.42;;
54977;SDS011;40873;47.522;19.106;2022-08-27T11:45:32;10.30;;;2.53;;
54977;SDS011;40873;47.522;19.106;2022-08-27T11:48:17;10.30;;;2.55;;
54977;SDS011;40873;47.522;19.106;2022-08-27T11:50:53;6.10;;;2.40;;
54977;SDS011;40873;47.522;19.106;2022-08-27T11:53:31;6.88;;;2.72;;
54977;SDS011;40873;47.522;19.106;2022-08-27T11:56:33;5.60;;;2.20;;
54977;SDS011;40873;47.522;19.106;2022-08-27T11:59:08;5.13;;;2.20;;
54977;SDS011;40873;47.522;19.106;2022-08-27T12:01:54;8.52;;;2.42;;
54977;SDS011;40873;47.522;19.106;2022-08-27T12:07:04;6.32;;;2.38;;
54977;SDS011;40873;47.522;19.106;2022-08-27T12:12:18;10.73;;;2.55;;
54977;SDS011;40873;47.522;19.106;2022-08-27T12:14:59;6.03;;;2.45;;
54977;SDS011;40873;47.522;19.106;2022-08-27T12:17:41;9.57;;;3.63;;
54977;SDS011;40873;47.522;19.106;2022-08-27T12:22:55;5.55;;;2.38;;
54977;SDS011;40873;47.522;19.106;2022-08-27T12:25:58;7.18;;;2.90;;
54977;SDS011;40873;47.522;19.106;2022-08-27T12:28:38;15.10;;;2.90;;
54977;SDS011;40873;47.522;19.106;2022-08-27T12:31:04;14.00;;;2.70;;
54977;SDS011;40873;47.522;19.106;2022-08-27T12:33:33;8.25;;;3.05;;
54977;SDS011;40873;47.522;19.106;2022-08-27T12:36:07;4.88;;;2.30;;
54977;SDS011;40873;47.522;19.106;2022-08-27T12:38:44;6.75;;;2.72;;
54977;SDS011;40873;47.522;19.106;2022-08-27T12:41:25;5.50;;;2.63;;
54977;SDS011;40873;47.522;19.106;2022-08-27T12:44:10;5.05;;;2.25;;
54977;SDS011;40873;47.522;19.106;2022-08-27T12:46:44;8.50;;;2.90;;
54977;SDS011;40873;47.522;19.106;2022-08-27T12:49:15;11.77;;;3.40;;
54977;SDS011;40873;47.522;19.106;2022-08-27T12:52:13;12.15;;;2.92;;
54977;SDS011;40873;47.522;19.106;2022-08-27T12:55:02;6.65;;;2.40;;
54977;SDS011;40873;47.522;19.106;2022-08-27T12:57:43;9.25;;;3.08;;
54977;SDS011;40873;47.522;19.106;2022-08-27T13:00:26;6.53;;;2.70;;
54977;SDS011;40873;47.522;19.106;2022-08-27T13:06:19;8.45;;;2.50;;
54977;SDS011;40873;47.522;19.106;2022-08-27T13:08:55;7.75;;;2.50;;
54977;SDS011;40873;47.522;19.106;2022-08-27T13:11:26;10.50;;;3.08;;
54977;SDS011;40873;47.522;19.106;2022-08-27T13:14:03;8.50;;;2.90;;
54977;SDS011;40873;47.522;19.106;2022-08-27T13:17:02;6.68;;;2.30;;
54977;SDS011;40873;47.522;19.106;2022-08-27T13:19:33;5.65;;;2.40;;
54977;SDS011;40873;47.522;19.106;2022-08-27T13:22:04;11.50;;;3.40;;
54977;SDS011;40873;47.522;19.106;2022-08-27T13:24:33;8.40;;;3.10;;
54977;SDS011;40873;47.522;19.106;2022-08-27T13:27:03;6.05;;;2.75;;
54977;SDS011;40873;47.522;19.106;2022-08-27T13:29:31;14.55;;;3.25;;
54977;SDS011;40873;47.522;19.106;2022-08-27T13:31:58;8.18;;;2.83;;
54977;SDS011;40873;47.522;19.106;2022-08-27T13:34:26;9.95;;;2.95;;
54977;SDS011;40873;47.522;19.106;2022-08-27T13:37:00;10.48;;;2.47;;
54977;SDS011;40873;47.522;19.106;2022-08-27T13:39:32;9.77;;;2.65;;
54977;SDS011;40873;47.522;19.106;2022-08-27T13:42:00;7.38;;;2.80;;
54977;SDS011;40873;47.522;19.106;2022-08-27T13:44:33;7.35;;;2.67;;
54977;SDS011;40873;47.522;19.106;2022-08-27T13:47:04;6.47;;;2.83;;
54977;SDS011;40873;47.522;19.106;2022-08-27T13:49:34;14.80;;;3.20;;
54977;SDS011;40873;47.522;19.106;2022-08-27T13:52:09;8.05;;;3.08;;
54977;SDS011;40873;47.522;19.106;2022-08-27T13:54:44;5.55;;;2.88;;
54977;SDS011;40873;47.522;19.106;2022-08-27T13:57:24;7.93;;;2.90;;
54977;SDS011;40873;47.522;19.106;2022-08-27T13:59:53;7.78;;;2.78;;
54977;SDS011;40873;47.522;19.106;2022-08-27T14:02:27;7.88;;;3.38;;
54977;SDS011;40873;47.522;19.106;2022-08-27T14:05:11;10.98;;;3.55;;
54977;SDS011;40873;47.522;19.106;2022-08-27T14:07:54;13.85;;;2.97;;
54977;SDS011;40873;47.522;19.106;2022-08-27T14:18:27;7.53;;;2.55;;
54977;SDS011;40873;47.522;19.106;2022-08-27T14:21:16;8.30;;;3.00;;
54977;SDS011;40873;47.522;19.106;2022-08-27T14:23:44;10.13;;;2.53;;
54977;SDS011;40873;47.522;19.106;2022-08-27T14:26:11;7.93;;;3.50;;
54977;SDS011;40873;47.522;19.106;2022-08-27T14:28:38;12.13;;;3.45;;
54977;SDS011;40873;47.522;19.106;2022-08-27T14:31:05;10.25;;;3.17;;
54977;SDS011;40873;47.522;19.106;2022-08-27T14:33:32;10.48;;;3.35;;
54977;SDS011;40873;47.522;19.106;2022-08-27T14:35:59;6.28;;;2.83;;
54977;SDS011;40873;47.522;19.106;2022-08-27T14:38:26;8.20;;;2.95;;
54977;SDS011;40873;47.522;19.106;2022-08-27T14:40:57;11.10;;;3.77;;
54977;SDS011;40873;47.522;19.106;2022-08-27T14:43:26;9.30;;;3.42;;
54977;SDS011;40873;47.522;19.106;2022-08-27T14:45:53;6.72;;;2.42;;
54977;SDS011;40873;47.522;19.106;2022-08-27T14:48:21;7.90;;;2.88;;
54977;SDS011;40873;47.522;19.106;2022-08-27T14:50:55;10.80;;;2.83;;
54977;SDS011;40873;47.522;19.106;2022-08-27T14:53:22;11.93;;;3.65;;
54977;SDS011;40873;47.522;19.106;2022-08-27T14:55:50;9.68;;;2.80;;
54977;SDS011;40873;47.522;19.106;2022-08-27T14:58:18;13.23;;;3.15;;
54977;SDS011;40873;47.522;19.106;2022-08-27T15:00:45;10.93;;;2.80;;
54977;SDS011;40873;47.522;19.106;2022-08-27T15:03:12;5.65;;;2.70;;
54977;SDS011;40873;47.522;19.106;2022-08-27T15:05:42;9.70;;;2.72;;
54977;SDS011;40873;47.522;19.106;2022-08-27T15:08:10;9.90;;;3.47;;
54977;SDS011;40873;47.522;19.106;2022-08-27T15:10:41;5.90;;;2.70;;
54977;SDS011;40873;47.522;19.106;2022-08-27T15:13:08;10.95;;;3.35;;
54977;SDS011;40873;47.522;19.106;2022-08-27T15:15:36;10.13;;;3.35;;
54977;SDS011;40873;47.522;19.106;2022-08-27T15:18:04;7.68;;;2.47;;
54977;SDS011;40873;47.522;19.106;2022-08-27T15:20:31;8.63;;;3.78;;
54977;SDS011;40873;47.522;19.106;2022-08-27T15:22:58;12.15;;;3.10;;
54977;SDS011;40873;47.522;19.106;2022-08-27T15:25:26;6.72;;;2.78;;
54977;SDS011;40873;47.522;19.106;2022-08-27T15:27:55;13.15;;;2.78;;
54977;SDS011;40873;47.522;19.106;2022-08-27T15:30:24;9.20;;;3.33;;
54977;SDS011;40873;47.522;19.106;2022-08-27T15:32:52;11.77;;;3.00;;
54977;SDS011;40873;47.522;19.106;2022-08-27T15:35:21;6.43;;;2.70;;
54977;SDS011;40873;47.522;19.106;2022-08-27T15:40:23;8.02;;;2.92;;
54977;SDS011;40873;47.522;19.106;2022-08-27T15:42:53;9.27;;;2.92;;
54977;SDS011;40873;47.522;19.106;2022-08-27T15:45:23;9.18;;;2.58;;
54977;SDS011;40873;47.522;19.106;2022-08-27T15:47:53;12.80;;;2.95;;
54977;SDS011;40873;47.522;19.106;2022-08-27T15:50:21;10.65;;;3.15;;
54977;SDS011;40873;47.522;19.106;2022-08-27T15:52:48;15.35;;;3.40;;
54977;SDS011;40873;47.522;19.106;2022-08-27T15:55:20;9.00;;;2.90;;
54977;SDS011;40873;47.522;19.106;2022-08-27T15:57:49;12.70;;;2.95;;
54977;SDS011;40873;47.522;19.106;2022-08-27T16:00:22;8.80;;;3.00;;
54977;SDS011;40873;47.522;19.106;2022-08-27T16:02:49;11.00;;;2.95;;
54977;SDS011;40873;47.522;19.106;2022-08-27T16:05:18;8.15;;;2.90;;
54977;SDS011;40873;47.522;19.106;2022-08-27T16:07:45;13.13;;;4.72;;
54977;SDS011;40873;47.522;19.106;2022-08-27T16:10:13;8.07;;;2.42;;
54977;SDS011;40873;47.522;19.106;2022-08-27T16:12:40;8.77;;;2.85;;
54977;SDS011;40873;47.522;19.106;2022-08-27T16:15:07;7.20;;;3.08;;
54977;SDS011;40873;47.522;19.106;2022-08-27T16:17:34;6.45;;;3.30;;
54977;SDS011;40873;47.522;19.106;2022-08-27T16:20:02;7.70;;;3.20;;
54977;SDS011;40873;47.522;19.106;2022-08-27T16:22:31;9.95;;;3.97;;
54977;SDS011;40873;47.522;19.106;2022-08-27T16:25:00;7.65;;;3.95;;
54977;SDS011;40873;47.522;19.106;2022-08-27T16:27:27;8.73;;;3.63;;
54977;SDS011;40873;47.522;19.106;2022-08-27T16:29:54;13.73;;;3.10;;
54977;SDS011;40873;47.522;19.106;2022-08-27T16:32:22;11.80;;;4.47;;